createdAt,value
2019-02-20T00:00:00.400Z,4.50
2019-02-20T00:05:02.593Z,4.60
2019-02-20T00:10:04.092Z,4.60
2019-02-20T00:15:06.382Z,4.70
2019-02-20T00:20:09.771Z,4.70
2019-02-20T00:25:11.071Z,4.70
2019-02-20T00:30:12.721Z,4.80
2019-02-20T00:35:14.152Z,4.80
2019-02-20T00:40:18.220Z,4.80
2019-02-20T00:45:24.588Z,4.90
2019-02-20T00:50:28.986Z,5.00
2019-02-20T00:55:30.737Z,5.00
2019-02-20T01:00:34.610Z,5.00
2019-02-20T01:05:37.927Z,5.10
2019-02-20T01:10:39.371Z,5.10
2019-02-20T01:15:40.765Z,5.20
2019-02-20T01:20:43.512Z,5.10
2019-02-20T01:25:45.092Z,5.10
2019-02-20T01:30:46.528Z,5.20
2019-02-20T01:35:47.985Z,5.10
2019-02-20T01:40:49.406Z,5.10
2019-02-20T01:45:50.882Z,5.10
2019-02-20T01:50:52.442Z,5.00
2019-02-20T01:55:53.771Z,5.00
2019-02-20T02:00:55.127Z,4.90
2019-02-20T02:05:56.578Z,4.90
2019-02-20T02:10:57.936Z,4.90
2019-02-20T02:15:59.263Z,4.90
2019-02-20T02:21:01.054Z,4.90
2019-02-20T02:26:10.642Z,4.90
2019-02-20T02:31:06.188Z,4.90
2019-02-20T02:36:07.655Z,4.80
2019-02-20T02:41:09.069Z,4.90
2019-02-20T02:46:10.787Z,4.90
2019-02-20T02:51:12.232Z,4.90
2019-02-20T02:56:13.736Z,4.90
2019-02-20T03:01:16.228Z,5.00
2019-02-20T03:06:17.680Z,5.00
2019-02-20T03:11:19.242Z,5.00
2019-02-20T03:16:20.710Z,5.00
2019-02-20T03:21:22.132Z,4.90
2019-02-20T03:26:23.663Z,4.90
2019-02-20T03:31:25.529Z,4.80
2019-02-20T03:36:27.017Z,4.70
2019-02-20T03:41:28.372Z,4.70
2019-02-20T03:46:29.678Z,4.60
2019-02-20T03:51:31.178Z,4.50
2019-02-20T03:56:32.756Z,4.50
2019-02-20T04:01:34.433Z,4.40
2019-02-20T04:06:36.296Z,4.40
2019-02-20T04:11:37.739Z,4.30
2019-02-20T04:16:39.231Z,4.30
2019-02-20T04:21:40.662Z,4.20
2019-02-20T04:26:42.024Z,4.20
2019-02-20T04:31:43.548Z,4.20
2019-02-20T04:36:46.521Z,4.20
2019-02-20T04:41:47.869Z,4.20
2019-02-20T04:46:49.300Z,4.30
2019-02-20T04:51:50.792Z,4.20
2019-02-20T04:56:52.256Z,4.20
2019-02-20T05:01:53.710Z,4.20
2019-02-20T05:06:55.507Z,4.10
2019-02-20T05:11:56.907Z,4.10
2019-02-20T05:16:58.358Z,4.00
2019-02-20T05:21:59.748Z,3.90
2019-02-20T05:27:01.184Z,3.90
2019-02-20T05:32:02.588Z,3.90
2019-02-20T05:37:03.959Z,3.90
2019-02-20T05:42:07.078Z,3.90
2019-02-20T05:47:08.819Z,3.90
2019-02-20T05:52:10.244Z,3.90
2019-02-20T05:57:11.679Z,3.90
2019-02-20T06:02:13.479Z,4.00
2019-02-20T06:07:15.151Z,4.10
2019-02-20T06:12:17.242Z,4.10
2019-02-20T06:17:18.636Z,4.20
2019-02-20T06:22:20.385Z,4.20
2019-02-20T06:27:21.825Z,4.30
2019-02-20T06:32:24.182Z,4.40
2019-02-20T06:37:25.815Z,4.50
2019-02-20T06:42:27.430Z,4.50
2019-02-20T06:47:30.563Z,4.60
2019-02-20T06:52:31.937Z,4.60
2019-02-20T06:57:33.459Z,4.70
2019-02-20T07:02:35.843Z,4.70
2019-02-20T07:07:43.177Z,4.80
2019-02-20T07:12:57.829Z,4.90
2019-02-20T07:18:08.163Z,4.90
2019-02-20T07:23:26.910Z,5.00
2019-02-20T07:29:02.550Z,5.00
2019-02-20T07:34:05.488Z,5.10
2019-02-20T07:39:07.045Z,5.20
2019-02-20T07:44:08.470Z,5.30
2019-02-20T07:49:10.002Z,5.50
2019-02-20T07:54:11.435Z,5.60
2019-02-20T07:59:12.872Z,5.70
2019-02-20T08:04:14.221Z,5.80
2019-02-20T08:09:15.734Z,6.00
2019-02-20T08:14:17.290Z,6.10
2019-02-20T08:19:18.820Z,6.20
2019-02-20T08:24:20.165Z,6.30
2019-02-20T08:29:21.570Z,6.40
2019-02-20T08:34:22.914Z,6.50
2019-02-20T08:39:26.322Z,6.50
2019-02-20T08:44:27.815Z,6.60
2019-02-20T08:49:30.735Z,6.70
2019-02-20T08:54:32.273Z,6.80
2019-02-20T08:59:33.604Z,6.90
2019-02-20T09:04:35.068Z,7.00
2019-02-20T09:09:36.405Z,7.10
2019-02-20T09:14:37.835Z,7.20
2019-02-20T09:19:39.509Z,7.30
2019-02-20T09:24:41.076Z,7.50
2019-02-20T09:29:42.504Z,7.60
2019-02-20T09:34:43.847Z,7.80
2019-02-20T09:39:45.296Z,7.90
2019-02-20T09:44:46.672Z,8.00
2019-02-20T09:49:48.439Z,8.20
2019-02-20T09:54:49.799Z,8.40
2019-02-20T09:59:51.339Z,8.50
2019-02-20T10:04:52.970Z,8.70
2019-02-20T10:09:54.319Z,8.80
2019-02-20T10:14:55.746Z,8.90
2019-02-20T10:19:57.105Z,9.00
2019-02-20T10:24:59.369Z,9.10
2019-02-20T10:30:05.135Z,9.20
2019-02-20T10:35:08.372Z,9.30
2019-02-20T10:40:11.162Z,9.40
2019-02-20T10:45:12.865Z,9.40
2019-02-20T10:50:14.488Z,9.40
2019-02-20T10:55:16.370Z,9.50
2019-02-20T11:00:24.197Z,9.50
2019-02-20T11:05:25.926Z,9.70
2019-02-20T11:10:27.551Z,9.80
2019-02-20T11:15:47.418Z,10.00
2019-02-20T11:20:48.765Z,10.10
2019-02-20T11:25:50.298Z,10.20
2019-02-20T11:30:51.833Z,10.30
2019-02-20T11:35:53.355Z,10.50
2019-02-20T11:40:54.959Z,10.60
2019-02-20T11:46:00.346Z,10.80
2019-02-20T11:51:02.061Z,10.90
2019-02-20T11:56:03.420Z,10.90
2019-02-20T12:01:05.145Z,11.00
2019-02-20T12:06:06.585Z,11.10
2019-02-20T12:11:08.096Z,11.10
2019-02-20T12:16:09.931Z,11.10
2019-02-20T12:21:11.239Z,11.20
2019-02-20T12:26:12.744Z,11.20
2019-02-20T12:31:14.170Z,11.30
2019-02-20T12:36:15.620Z,11.30
2019-02-20T12:41:17.054Z,11.40
2019-02-20T12:46:36.943Z,11.40
2019-02-20T12:51:38.481Z,11.50
2019-02-20T12:56:43.883Z,11.40
2019-02-20T13:01:43.205Z,11.40
2019-02-20T13:06:44.567Z,11.40
2019-02-20T13:11:46.753Z,11.50
2019-02-20T13:16:48.127Z,11.50
2019-02-20T13:21:49.619Z,11.60
2019-02-20T13:26:53.197Z,11.60
2019-02-20T13:31:54.432Z,11.70
2019-02-20T13:36:56.009Z,11.70
2019-02-20T13:41:57.407Z,11.80
2019-02-20T13:46:58.923Z,11.90
2019-02-20T13:52:00.561Z,12.00
2019-02-20T13:57:02.501Z,12.00
2019-02-20T14:02:04.487Z,12.10
2019-02-20T14:07:05.896Z,12.10
2019-02-20T14:12:07.446Z,12.20
2019-02-20T14:17:09.598Z,12.20
2019-02-20T14:22:10.963Z,12.20
2019-02-20T14:27:12.379Z,12.20
2019-02-20T14:32:13.765Z,12.10
2019-02-20T14:37:15.085Z,12.10
2019-02-20T14:42:16.522Z,12.00
2019-02-20T14:47:17.861Z,11.90
2019-02-20T14:52:19.200Z,11.90
2019-02-20T14:57:20.543Z,11.90
2019-02-20T15:02:21.985Z,11.90
2019-02-20T15:07:23.589Z,12.00
2019-02-20T15:12:25.533Z,12.00
2019-02-20T15:17:26.951Z,12.00
2019-02-20T15:22:28.719Z,12.10
2019-02-20T15:27:30.228Z,12.00
2019-02-20T15:32:31.637Z,12.00
2019-02-20T15:37:33.411Z,12.00
2019-02-20T15:42:35.099Z,12.00
2019-02-20T15:47:36.623Z,12.00
2019-02-20T15:52:39.725Z,12.00
2019-02-20T15:57:41.715Z,11.90
2019-02-20T16:02:43.152Z,11.90
2019-02-20T16:07:45.052Z,11.90
2019-02-20T16:12:46.929Z,11.80
2019-02-20T16:17:48.367Z,11.80
2019-02-20T16:22:49.964Z,11.70
2019-02-20T16:27:51.291Z,11.60
2019-02-20T16:32:52.693Z,11.50
2019-02-20T16:37:54.000Z,11.40
2019-02-20T16:42:55.504Z,11.30
2019-02-20T16:47:56.991Z,11.10
2019-02-20T16:52:58.596Z,11.00
2019-02-20T16:58:00.122Z,10.80
2019-02-20T17:03:01.689Z,10.60
2019-02-20T17:08:03.930Z,10.50
2019-02-20T17:13:05.445Z,10.30
2019-02-20T17:18:07.495Z,10.20
2019-02-20T17:23:09.024Z,10.10
2019-02-20T17:28:10.527Z,9.90
2019-02-20T17:33:12.233Z,9.80
2019-02-20T17:38:13.857Z,9.70
2019-02-20T17:43:15.400Z,9.50
2019-02-20T17:48:18.525Z,9.30
2019-02-20T17:53:20.348Z,9.10
2019-02-20T17:58:22.656Z,9.00
2019-02-20T18:03:24.079Z,8.80
2019-02-20T18:08:25.545Z,8.70
2019-02-20T18:13:26.927Z,8.50
2019-02-20T18:18:28.266Z,8.40
2019-02-20T18:23:29.848Z,8.20
2019-02-20T18:28:31.454Z,8.10
2019-02-20T18:33:32.883Z,7.90
2019-02-20T18:38:34.224Z,7.80
2019-02-20T18:43:35.584Z,7.60
2019-02-20T18:48:37.566Z,7.50
2019-02-20T18:53:39.111Z,7.40
2019-02-20T18:58:42.097Z,7.30
2019-02-20T19:03:43.651Z,7.20
2019-02-20T19:08:49.202Z,7.10
2019-02-20T19:14:34.829Z,7.00
2019-02-20T19:20:02.452Z,6.90
2019-02-20T19:25:44.337Z,6.80
2019-02-20T19:31:22.495Z,6.60
2019-02-20T19:36:54.073Z,6.50
2019-02-20T19:42:43.063Z,6.50
2019-02-20T19:48:02.797Z,6.30
2019-02-20T19:53:12.870Z,6.30
2019-02-20T19:58:31.940Z,6.20
2019-02-20T20:03:48.017Z,6.10
2019-02-20T20:09:04.216Z,6.10
2019-02-20T20:14:14.272Z,6.00
2019-02-20T20:19:33.005Z,5.90
2019-02-20T20:24:45.952Z,5.90
2019-02-20T20:30:17.325Z,5.80
2019-02-20T20:35:52.813Z,5.80
2019-02-20T20:41:02.707Z,5.80
2019-02-20T20:46:25.389Z,5.90
2019-02-20T20:52:01.613Z,5.90
2019-02-20T20:57:17.540Z,5.90
2019-02-20T21:02:30.331Z,5.90
2019-02-20T21:07:51.821Z,5.90
2019-02-20T21:13:23.470Z,5.90
2019-02-20T21:19:21.228Z,5.80
2019-02-20T21:24:38.847Z,5.70
2019-02-20T21:29:51.617Z,5.70
2019-02-20T21:35:23.649Z,5.70
2019-02-20T21:40:42.454Z,5.70
2019-02-20T21:46:15.341Z,5.70
2019-02-20T21:51:44.780Z,5.70
2019-02-20T21:56:57.407Z,5.70
2019-02-20T22:02:25.812Z,5.70
2019-02-20T22:08:01.298Z,5.70
2019-02-20T22:13:29.643Z,5.70
2019-02-20T22:18:51.371Z,5.70
2019-02-20T22:24:07.385Z,5.60
2019-02-20T22:29:32.203Z,5.60
2019-02-20T22:35:05.252Z,5.60
2019-02-20T22:40:47.122Z,5.50
2019-02-20T22:46:00.214Z,5.50
2019-02-20T22:51:22.065Z,5.40
2019-02-20T22:57:02.671Z,5.40
2019-02-20T23:02:54.085Z,5.30
2019-02-20T23:08:10.038Z,5.20
2019-02-20T23:13:29.114Z,5.10
2019-02-20T23:18:30.863Z,5.10
2019-02-20T23:23:32.595Z,5.00
2019-02-20T23:28:33.991Z,5.00
2019-02-20T23:33:35.430Z,4.90
2019-02-20T23:38:36.871Z,4.90
2019-02-20T23:43:39.373Z,4.90
2019-02-20T23:48:41.128Z,4.80
2019-02-20T23:53:42.773Z,4.80
2019-02-20T23:58:45.817Z,4.70
